• Join FlightAware (Why Join?)
  • Login
  • US Flag 
11:01AM EST


 

Airport Tracker/Info


-or-


 

Live Flight TrackerFlight Track Log ✈ SKW6306 ✈ 15-Jun-2013 ✈ KDEN - KCOD

Flight Track Log - Related Links

Times and Time Zones

All times are in EDT time to prevent confusion due to time zone crossing. See the SKW6306 flight status page for this flight to view local times or setup timezone preferences in your user account.

Time Position Orientation Groundspeed Altitude Reporting Facility
EDT Latitude Longitude Course Direction KTS MPH feet Rate Location/Type
09:57PM 39.9500 -104.6833 346° North 222 255 7,500  Level Denver TRACON
09:59PM 40.0333 -104.6667 North 279 321 9,500 1,860 Climbing Denver TRACON
09:59PM 40.1000 -104.6667 360° North 295 339 11,300 2,160 Climbing Denver TRACON
10:00PM 40.1183 -104.6733 344° North 295 339 11,900 2,100 Climbing Denver Center
10:01PM 40.2036 -104.6961 348° North 311 358 14,100 1,860 Climbing Denver Center
10:02PM 40.2969 -104.7206 349° North 318 366 16,100 1,740 Climbing Denver Center
10:03PM 40.4346 -104.8559 346° North  Level FlightAware Approximate
10:03PM 40.4094 -104.7511 348° North 336 387 18,100  Level Denver Center
10:04PM 40.5058 -104.7761 349° North 353 406 19,700 1,320 Climbing Denver Center
10:05PM 40.6017 -104.8036 348° North 352 405 20,900 1,320 Climbing Denver Center
10:06PM 40.7036 -104.8292 349° North 369 425 22,400 1,140 Climbing Denver Center
10:07PM 40.8078 -104.8675 344° North 358 412 23,300 1,080 Climbing Denver Center
10:08PM 40.9025 -104.9244 336° Northwest 374 430 24,700 1,080 Climbing Denver Center
10:09PM 40.9803 -105.0092 321° Northwest 363 418 25,600 900 Climbing Denver Center
10:10PM 41.0611 -105.0944 322° Northwest 367 422 26,600 960 Climbing Denver Center
10:11PM 41.1514 -105.1919 321° Northwest 373 429 27,600 840 Climbing Denver Center
10:12PM 41.2306 -105.2783 321° Northwest 381 438 28,400 720 Climbing Denver Center
10:13PM 41.3100 -105.3619 322° Northwest 381 438 29,100 600 Climbing Denver Center
10:14PM 41.4044 -105.4614 322° Northwest 385 443 29,700 780 Climbing Denver Center
10:15PM 41.4850 -105.5483 321° Northwest 388 447 30,700 660 Climbing Denver Center
10:16PM 41.5803 -105.6514 321° Northwest 393 452 31,100 420 Climbing Denver Center
10:17PM 41.6631 -105.7397 321° Northwest 396 456 31,600 420 Climbing Denver Center
10:18PM 41.7472 -105.8303 321° Northwest 401 461 32,000 180 Climbing Denver Center
10:19PM 41.8489 -105.9408 321° Northwest 416 479 32,000  Level Denver Center
10:20PM 41.9369 -106.0375 321° Northwest 424 488 32,000  Level Denver Center
10:21PM 42.0267 -106.1350 321° Northwest 428 493 32,000  Level Denver Center
10:22PM 42.1292 -106.2489 321° Northwest 423 487 32,000  Level Denver Center
10:23PM 42.2306 -106.3256 331° Northwest 442 509 32,000  Level Denver Center
10:24PM 42.3564 -106.3950 338° Northwest 437 503 32,000  Level Denver Center
10:25PM 42.4539 -106.4714 330° Northwest 421 484 32,000  Level Denver Center
10:26PM 42.5386 -106.5694 320° Northwest 418 481 32,000  Level Denver Center
10:28PM 42.6436 -106.6744 324° Northwest 419 482 32,000  Level Denver Center
10:29PM 42.7650 -106.7950 324° Northwest 423 487 32,000  Level Denver Center
10:30PM 42.8553 -106.8850 324° Northwest 420 483 32,000  Level Denver Center
10:30PM 42.9011 -106.9328 323° Northwest 424 488 32,000  Level Salt Lake Center
10:31PM 42.9972 -107.0294 324° Northwest 424 488 32,000  Level Salt Lake Center
10:32PM 43.1033 -107.1358 324° Northwest 422 486 32,000  Level Salt Lake Center
10:33PM 43.1925 -107.2311 322° Northwest 424 488 32,000  Level Salt Lake Center
10:34PM 43.2839 -107.3233 324° Northwest 425 489 32,000  Level Salt Lake Center
10:35PM 43.3919 -107.4322 324° Northwest 429 494 32,000  Level Salt Lake Center
10:36PM 43.4836 -107.5267 323° Northwest 430 495 32,000 -240 Level Salt Lake Center
10:37PM 43.5908 -107.6367 323° Northwest 430 495 31,600 -1,440 Descending Salt Lake Center
10:38PM 43.6881 -107.7344 324° Northwest 444 511 29,100 -2,400 Descending Salt Lake Center
10:39PM 43.7797 -107.8283 324° Northwest 433 498 26,700 -2,580 Descending Salt Lake Center
10:40PM 43.8831 -107.9378 323° Northwest 421 484 23,900 -2,580 Descending Salt Lake Center
10:42PM 43.9719 -108.0286 324° Northwest 415 478 21,500 -2,460 Descending Salt Lake Center
10:43PM 44.0717 -108.1369 322° Northwest 410 472 18,900 -2,280 Descending Salt Lake Center
10:44PM 44.1553 -108.2231 324° Northwest 401 461 16,900 -1,920 Descending Salt Lake Center
10:45PM 44.2342 -108.3069 323° Northwest 388 447 15,000 -1,980 Descending Salt Lake Center
10:46PM 44.3222 -108.4006 323° Northwest 370 426 12,900 -1,500 Descending Salt Lake Center
10:47PM 44.3956 -108.4781 323° Northwest 357 411 12,000 -1,080 Descending Salt Lake Center
10:48PM 44.4594 -108.5469 322° Northwest 330 380 10,700 -1,380 Descending Salt Lake Center
10:49PM 44.5200 -108.6122 322° Northwest 304 350 9,200 -900 Descending Salt Lake Center
10:50PM 44.5886 -108.6844 323° Northwest 289 333 8,900 -600 Descending Salt Lake Center
10:51PM 44.6481 -108.7533 321° Northwest 265 305 8,000 -720 Descending Salt Lake Center
10:52PM 44.6336 -108.8256 254° West 221 254 7,500 -420 Descending Salt Lake Center
10:53PM 44.6003 -108.8861 232° Southwest 209 241 7,200 -660 Descending Salt Lake Center
10:54PM 44.5639 -108.9497 231° Southwest 197 227 6,200 -840 Descending Salt Lake Center
10:55PM 44.5375 -108.9972 232° Southwest 189 217 5,600 -600 Descending Salt Lake Center
10:57PM 44.5167 -109.0167 270° West  Level FlightAware Approximate
11:04PM 44.5202 -109.0238 270° West  Level Estimated